Aspen-Pitkin Co,Sardy Field Aspen US
ICAO: KASE
IATA: ASE
Category: Medium
Scheduled Services: Yes

Elevation: 7820 ft
TransAlt. 18000 ft.

Airport Communications:
ATIS:120.4
CLNC DEL:123.75
APP/DEP:123.8
CTAF:118.85
GND:121.9
TWR:118.85
UNICOM:122.95

KASE Zoom In..

Runways:

(A) RW 15 length 8006 ft width 100 ft
LOC 111.15 / hdg 151

(B) RW 33 length 8006 ft width 100 ft
LOC 111.15 / hdg 331

Location; KASE
Day. 25 / Time. 00.53 Zulu
* Altimeter: 30.05
* Temperature: -03° c. -26.6°f.
* Wind from: 000° Speed 00 kn.
Dewpoint: -06° c.
Visibility: 10 Statute Miles.
Clouds: Few 2300 ft.
Clouds: Broken 3700 ft.
Clouds: Overcast 5000 ft.

KASE 250053Z 00000KT 10SM FEW023 BKN037 OVC050 M03/M06 A3005 RMK AO2 SLP163 T10331061

Going to: --> -->


Wind - Calm.

 
 
jpsmedia worldairports.se 2020   terms of use